createdAt,value
2022-10-18T00:01:02.650Z,101944.25
2022-10-18T00:03:30.791Z,101949.00
2022-10-18T00:05:59.329Z,101939.78
2022-10-18T00:08:27.362Z,101930.53
2022-10-18T00:10:55.330Z,101932.63
2022-10-18T00:13:23.300Z,101929.28
2022-10-18T00:15:52.216Z,101944.56
2022-10-18T00:18:20.036Z,101957.09
2022-10-18T00:21:00.665Z,101977.59
2022-10-18T00:23:29.538Z,101990.06
2022-10-18T00:26:04.278Z,102000.72
2022-10-18T00:28:33.748Z,102009.59
2022-10-18T00:31:18.781Z,102005.19
2022-10-18T00:33:49.820Z,102007.09
2022-10-18T00:36:17.804Z,102007.47
2022-10-18T00:38:46.277Z,101993.66
2022-10-18T00:41:16.997Z,101996.69
2022-10-18T00:44:11.176Z,101990.19
2022-10-18T00:46:41.171Z,101996.56
2022-10-18T00:49:17.419Z,101999.22
2022-10-18T00:51:48.430Z,102014.25
2022-10-18T00:54:17.795Z,102008.75
2022-10-18T00:56:46.017Z,102028.06
2022-10-18T00:59:16.170Z,102026.13
2022-10-18T01:01:44.770Z,102025.16
2022-10-18T01:04:14.723Z,102045.34
2022-10-18T01:09:40.004Z,102051.69
2022-10-18T01:12:34.552Z,102054.66
2022-10-18T01:15:15.346Z,102049.56
2022-10-18T01:18:09.934Z,102056.16
2022-10-18T01:20:58.793Z,102050.38
2022-10-18T01:23:26.321Z,102064.16
2022-10-18T01:26:10.591Z,102068.13
2022-10-18T01:28:50.544Z,102078.34
2022-10-18T01:31:33.654Z,102082.22
2022-10-18T01:34:05.888Z,102087.03
2022-10-18T01:36:37.885Z,102085.50
2022-10-18T01:39:12.107Z,102098.28
2022-10-18T01:41:43.380Z,102099.47
2022-10-18T01:44:16.141Z,102105.91
2022-10-18T01:46:44.918Z,102115.88
2022-10-18T01:49:12.540Z,102116.91
2022-10-18T01:51:40.067Z,102119.41
2022-10-18T01:54:07.691Z,102117.09
2022-10-18T01:57:02.557Z,102118.56
2022-10-18T02:00:20.832Z,102130.94
2022-10-18T02:03:01.617Z,102135.22
2022-10-18T02:05:34.992Z,102129.22
2022-10-18T02:08:24.416Z,102139.06
2022-10-18T02:11:00.891Z,102149.91
2022-10-18T02:13:33.495Z,102150.22
2022-10-18T02:16:08.036Z,102168.16
2022-10-18T02:18:47.024Z,102168.44
2022-10-18T02:21:17.580Z,102170.41
2022-10-18T02:23:46.891Z,102170.41
2022-10-18T02:26:15.962Z,102164.13
2022-10-18T02:28:44.038Z,102174.88
2022-10-18T02:31:43.412Z,102171.56
2022-10-18T02:34:30.540Z,102179.66
2022-10-18T02:37:02.157Z,102188.66
2022-10-18T02:39:31.411Z,102195.00
2022-10-18T02:41:59.788Z,102200.63
2022-10-18T02:44:27.541Z,102208.88
2022-10-18T02:46:55.651Z,102200.09
2022-10-18T02:49:23.121Z,102203.72
2022-10-18T02:51:50.594Z,102196.84
2022-10-18T02:54:18.074Z,102203.19
2022-10-18T02:56:45.569Z,102203.34
2022-10-18T02:59:13.248Z,102212.38
2022-10-18T03:01:41.095Z,102219.56
2022-10-18T03:04:08.940Z,102211.78
2022-10-18T03:06:36.522Z,102215.41
2022-10-18T03:09:05.859Z,102223.63
2022-10-18T03:11:33.702Z,102234.47
2022-10-18T03:14:01.217Z,102248.81
2022-10-18T03:16:28.848Z,102247.94
2022-10-18T03:18:56.471Z,102260.59
2022-10-18T03:21:24.020Z,102259.03
2022-10-18T03:23:51.484Z,102259.09
2022-10-18T03:26:18.959Z,102259.09
2022-10-18T03:28:46.489Z,102257.38
2022-10-18T03:31:14.065Z,102263.56
2022-10-18T03:33:41.580Z,102280.66
2022-10-18T03:36:09.602Z,102288.88
2022-10-18T03:38:37.218Z,102292.63
2022-10-18T03:41:04.835Z,102294.53
2022-10-18T03:43:32.618Z,102300.88
2022-10-18T03:46:00.540Z,102310.63
2022-10-18T03:48:28.065Z,102315.88
2022-10-18T03:50:55.905Z,102321.44
2022-10-18T03:53:23.368Z,102330.47
2022-10-18T03:55:55.352Z,102334.88
2022-10-18T03:58:23.408Z,102316.97
2022-10-18T04:00:52.148Z,102314.94
2022-10-18T04:03:21.396Z,102310.50
2022-10-18T04:05:49.561Z,102322.16
2022-10-18T04:08:18.114Z,102332.06
2022-10-18T04:10:47.216Z,102332.97
2022-10-18T04:13:14.969Z,102330.56
2022-10-18T04:15:43.357Z,102340.31
2022-10-18T04:18:10.902Z,102341.19
2022-10-18T04:20:38.497Z,102345.66
2022-10-18T04:23:05.991Z,102351.09
2022-10-18T04:25:33.584Z,102359.25
2022-10-18T04:28:01.209Z,102370.03
2022-10-18T04:30:28.721Z,102388.00
2022-10-18T04:32:56.225Z,102387.28
2022-10-18T04:35:26.039Z,102382.94
2022-10-18T04:37:53.730Z,102393.75
2022-10-18T04:40:21.913Z,102399.38
2022-10-18T04:42:49.395Z,102399.50
2022-10-18T04:45:16.919Z,102400.50
2022-10-18T04:47:44.435Z,102405.94
2022-10-18T04:50:11.917Z,102413.06
2022-10-18T04:52:39.526Z,102414.84
2022-10-18T04:55:07.416Z,102405.00
2022-10-18T04:57:34.979Z,102409.41
2022-10-18T05:00:02.717Z,102419.13
2022-10-18T05:02:30.707Z,102422.75
2022-10-18T05:04:58.617Z,102427.25
2022-10-18T05:07:26.101Z,102432.63
2022-10-18T05:09:53.567Z,102428.31
2022-10-18T05:12:22.303Z,102430.09
2022-10-18T05:14:49.751Z,102428.44
2022-10-18T05:17:17.280Z,102421.41
2022-10-18T05:19:44.750Z,102425.00
2022-10-18T05:22:12.379Z,102424.19
2022-10-18T05:24:39.868Z,102426.13
2022-10-18T05:27:07.363Z,102436.00
2022-10-18T05:29:34.849Z,102436.16
2022-10-18T05:32:02.423Z,102443.25
2022-10-18T05:34:32.096Z,102438.06
2022-10-18T05:37:00.203Z,102447.88
2022-10-18T05:39:27.797Z,102447.00
2022-10-18T05:41:55.343Z,102444.50
2022-10-18T05:44:22.839Z,102440.16
2022-10-18T05:46:50.442Z,102447.34
2022-10-18T05:49:18.059Z,102454.50
2022-10-18T05:51:45.564Z,102464.28
2022-10-18T05:54:13.363Z,102454.63
2022-10-18T05:56:41.290Z,102465.31
2022-10-18T05:59:12.267Z,102471.66
2022-10-18T06:01:41.831Z,102462.91
2022-10-18T06:04:10.459Z,102466.47
2022-10-18T06:06:39.069Z,102464.81
2022-10-18T06:09:07.848Z,102473.75
2022-10-18T06:11:37.019Z,102485.28
2022-10-18T06:14:05.268Z,102492.34
2022-10-18T06:16:33.032Z,102484.38
2022-10-18T06:19:00.672Z,102482.59
2022-10-18T06:21:28.321Z,102486.22
2022-10-18T06:23:58.187Z,102490.66
2022-10-18T06:26:27.543Z,102499.56
2022-10-18T06:28:55.368Z,102491.59
2022-10-18T06:31:23.018Z,102501.34
2022-10-18T06:33:50.678Z,102508.44
2022-10-18T06:36:22.277Z,102518.19
2022-10-18T06:38:50.930Z,102532.31
2022-10-18T06:41:19.615Z,102538.34
2022-10-18T06:43:51.441Z,102540.97
2022-10-18T06:46:19.931Z,102546.97
2022-10-18T06:48:47.433Z,102540.53
2022-10-18T06:51:15.625Z,102546.41
2022-10-18T06:53:53.462Z,102558.75
2022-10-18T06:56:30.907Z,102568.75
2022-10-18T07:01:30.990Z,102569.56
2022-10-18T07:03:58.551Z,102572.16
2022-10-18T07:06:26.134Z,102570.31
2022-10-18T07:08:54.307Z,102570.31
2022-10-18T07:11:25.149Z,102573.75
2022-10-18T07:13:54.614Z,102573.75
2022-10-18T07:16:22.310Z,102583.47
2022-10-18T07:18:51.486Z,102595.00
2022-10-18T07:21:22.217Z,102603.84
2022-10-18T07:23:50.855Z,102605.44
2022-10-18T07:26:21.930Z,102614.81
2022-10-18T07:28:54.297Z,102623.56
2022-10-18T07:31:22.975Z,102621.69
2022-10-18T07:33:50.830Z,102625.03
2022-10-18T07:36:18.524Z,102624.09
2022-10-18T07:38:46.023Z,102636.41
2022-10-18T07:41:14.740Z,102643.38
2022-10-18T07:43:48.096Z,102643.28
2022-10-18T07:46:18.189Z,102645.00
2022-10-18T07:48:45.984Z,102651.91
2022-10-18T07:51:13.835Z,102663.16
2022-10-18T07:53:41.415Z,102679.47
2022-10-18T07:56:11.974Z,102687.81
2022-10-18T07:58:39.933Z,102695.34
2022-10-18T08:01:08.973Z,102696.75
2022-10-18T08:03:37.682Z,102704.53
2022-10-18T08:06:09.227Z,102714.06
2022-10-18T08:08:38.928Z,102717.16
2022-10-18T08:11:09.567Z,102718.50
2022-10-18T08:13:37.219Z,102718.25
2022-10-18T08:16:11.414Z,102715.31
2022-10-18T08:18:39.647Z,102724.69
2022-10-18T08:21:13.375Z,102728.53
2022-10-18T08:23:41.471Z,102727.09
2022-10-18T08:26:11.913Z,102727.50
2022-10-18T08:28:40.427Z,102737.78
2022-10-18T08:31:13.384Z,102732.84
2022-10-18T08:33:41.092Z,102739.09
2022-10-18T08:36:11.751Z,102734.34
2022-10-18T08:38:41.361Z,102741.28
2022-10-18T08:41:30.124Z,102741.88
2022-10-18T08:44:07.450Z,102740.97
2022-10-18T08:46:37.316Z,102752.16
2022-10-18T08:49:07.295Z,102755.72
2022-10-18T08:51:46.746Z,102757.56
2022-10-18T08:54:22.479Z,102753.59
2022-10-18T08:57:02.019Z,102753.69
2022-10-18T08:59:39.017Z,102754.34
2022-10-18T09:02:15.672Z,102755.81
2022-10-18T09:05:01.234Z,102774.78
2022-10-18T09:08:00.155Z,102771.31
2022-10-18T09:10:42.885Z,102768.19
2022-10-18T09:13:16.150Z,102774.63
2022-10-18T09:15:52.668Z,102781.69
2022-10-18T09:18:40.707Z,102787.81
2022-10-18T09:21:27.107Z,102785.91
2022-10-18T09:24:13.457Z,102790.09
2022-10-18T09:26:49.969Z,102787.16
2022-10-18T09:29:26.765Z,102789.38
2022-10-18T09:32:45.189Z,102782.69
2022-10-18T09:35:15.107Z,102784.09
2022-10-18T09:37:44.101Z,102795.25
2022-10-18T09:40:23.546Z,102798.22
2022-10-18T09:42:51.042Z,102799.69
2022-10-18T09:45:34.775Z,102787.22
2022-10-18T09:48:23.861Z,102799.47
2022-10-18T09:51:02.813Z,102802.75
2022-10-18T09:53:32.978Z,102820.38
2022-10-18T09:56:19.112Z,102825.94
2022-10-18T09:58:49.377Z,102825.47
2022-10-18T10:01:22.107Z,102826.22
2022-10-18T10:03:49.641Z,102833.09
2022-10-18T10:06:18.404Z,102826.13
2022-10-18T10:08:54.470Z,102833.69
2022-10-18T10:11:46.263Z,102843.59
2022-10-18T10:14:21.652Z,102837.59
2022-10-18T10:16:50.898Z,102841.88
2022-10-18T10:19:25.278Z,102841.81
2022-10-18T10:21:57.175Z,102840.16
2022-10-18T10:24:35.679Z,102840.56
2022-10-18T10:27:14.911Z,102837.63
2022-10-18T10:29:45.579Z,102842.66
2022-10-18T10:32:15.812Z,102847.78
2022-10-18T10:34:44.966Z,102843.34
2022-10-18T10:37:32.504Z,102848.50
2022-10-18T10:40:31.682Z,102852.09
2022-10-18T10:43:12.912Z,102856.34
2022-10-18T10:46:02.400Z,102857.09
2022-10-18T10:48:40.923Z,102865.13
2022-10-18T10:51:10.624Z,102861.53
2022-10-18T10:53:46.278Z,102858.97
2022-10-18T10:56:38.943Z,102858.31
2022-10-18T10:59:20.136Z,102864.63
2022-10-18T11:01:50.241Z,102867.84
2022-10-18T11:04:29.748Z,102865.13
2022-10-18T11:06:57.215Z,102869.41
2022-10-18T11:09:31.277Z,102870.03
2022-10-18T11:12:18.518Z,102867.97
2022-10-18T11:14:56.025Z,102873.25
2022-10-18T11:17:40.632Z,102863.19
2022-10-18T11:20:09.978Z,102874.09
2022-10-18T11:22:51.988Z,102871.00
2022-10-18T11:25:25.332Z,102864.56
2022-10-18T11:28:01.942Z,102855.22
2022-10-18T11:30:43.481Z,102857.94
2022-10-18T11:33:10.938Z,102857.09
2022-10-18T11:35:48.099Z,102854.13
2022-10-18T11:38:45.127Z,102856.63
2022-10-18T11:41:12.606Z,102856.75
2022-10-18T11:44:01.145Z,102848.16
2022-10-18T11:46:48.687Z,102850.91
2022-10-18T11:49:32.406Z,102849.34
2022-10-18T11:52:13.919Z,102854.81
2022-10-18T11:55:12.128Z,102848.75
2022-10-18T11:58:13.424Z,102849.25
2022-10-18T12:01:07.474Z,102855.22
2022-10-18T12:04:02.053Z,102853.69
2022-10-18T12:06:41.401Z,102847.38
2022-10-18T12:09:28.878Z,102834.75
2022-10-18T12:12:22.482Z,102840.03
2022-10-18T12:14:55.695Z,102847.88
2022-10-18T12:17:47.533Z,102837.78
2022-10-18T12:20:31.784Z,102838.19
2022-10-18T12:22:59.178Z,102834.41
2022-10-18T12:25:30.198Z,102838.28
2022-10-18T12:28:02.571Z,102841.97
2022-10-18T12:31:04.398Z,102824.03
2022-10-18T12:33:39.602Z,102823.59
2022-10-18T12:36:19.004Z,102825.19
2022-10-18T12:38:51.981Z,102822.69
2022-10-18T12:41:27.407Z,102828.56
2022-10-18T12:44:04.534Z,102820.34
2022-10-18T12:46:49.164Z,102828.13
2022-10-18T12:49:24.191Z,102825.22
2022-10-18T12:51:54.302Z,102824.19
2022-10-18T12:54:32.637Z,102835.94
2022-10-18T12:57:02.032Z,102823.53
2022-10-18T12:59:29.563Z,102826.22
2022-10-18T13:01:57.077Z,102828.13
2022-10-18T13:04:27.347Z,102835.09
2022-10-18T13:07:00.780Z,102829.59
2022-10-18T13:09:29.422Z,102836.03
2022-10-18T13:12:15.106Z,102830.69
2022-10-18T13:15:05.723Z,102833.56
2022-10-18T13:17:48.928Z,102841.31
2022-10-18T13:20:39.518Z,102841.88
2022-10-18T13:23:41.990Z,102844.56
2022-10-18T13:26:41.702Z,102846.38
2022-10-18T13:29:37.532Z,102853.75
2022-10-18T13:32:08.189Z,102849.84
2022-10-18T13:34:39.168Z,102841.56
2022-10-18T13:37:20.755Z,102849.56
2022-10-18T13:39:48.493Z,102831.91
2022-10-18T13:42:15.908Z,102838.59
2022-10-18T13:44:44.818Z,102837.47
2022-10-18T13:47:14.973Z,102844.53
2022-10-18T13:49:58.485Z,102840.16
2022-10-18T13:53:08.252Z,102833.63
2022-10-18T13:55:55.834Z,102833.25
2022-10-18T13:59:05.669Z,102837.50
2022-10-18T14:01:47.459Z,102834.34
2022-10-18T14:04:39.931Z,102836.84
2022-10-18T14:07:09.009Z,102841.69
2022-10-18T14:09:56.125Z,102839.94
2022-10-18T14:12:46.005Z,102837.44
2022-10-18T14:15:27.690Z,102840.75
2022-10-18T14:18:04.937Z,102840.88
2022-10-18T14:20:49.429Z,102828.91
2022-10-18T14:23:48.031Z,102829.50
2022-10-18T14:26:17.973Z,102834.72
2022-10-18T14:28:59.668Z,102832.69
2022-10-18T14:31:28.567Z,102834.13
2022-10-18T14:33:59.013Z,102832.09
2022-10-18T14:36:34.638Z,102833.81
2022-10-18T14:39:05.166Z,102836.31
2022-10-18T14:41:34.999Z,102831.44
2022-10-18T14:44:11.478Z,102834.25
2022-10-18T14:46:44.434Z,102829.16
2022-10-18T14:49:13.674Z,102828.53
2022-10-18T14:51:43.823Z,102826.72
2022-10-18T14:54:16.186Z,102830.91
2022-10-18T14:56:45.016Z,102829.94
2022-10-18T14:59:22.563Z,102833.94
2022-10-18T15:01:56.867Z,102836.84
2022-10-18T15:04:32.742Z,102849.66
2022-10-18T15:07:05.471Z,102837.91
2022-10-18T15:09:36.099Z,102853.75
2022-10-18T15:12:05.963Z,102857.56
2022-10-18T15:14:35.262Z,102857.34
2022-10-18T15:17:24.546Z,102842.59
2022-10-18T15:20:06.186Z,102846.53
2022-10-18T15:22:34.238Z,102843.84
2022-10-18T15:25:12.724Z,102837.16
2022-10-18T15:27:46.350Z,102843.25
2022-10-18T15:30:22.860Z,102850.84
2022-10-18T15:32:56.834Z,102844.91
2022-10-18T15:35:34.755Z,102846.09
2022-10-18T15:38:13.594Z,102853.50
2022-10-18T15:40:41.832Z,102858.88
2022-10-18T15:43:24.796Z,102855.41
2022-10-18T15:45:53.898Z,102851.88
2022-10-18T15:48:23.483Z,102848.78
2022-10-18T15:51:04.889Z,102849.63
2022-10-18T15:53:51.522Z,102849.28
2022-10-18T15:56:36.941Z,102850.75
2022-10-18T15:59:21.600Z,102848.56
2022-10-18T16:01:49.344Z,102847.53
2022-10-18T16:04:29.450Z,102855.50
2022-10-18T16:06:58.558Z,102849.19
2022-10-18T16:09:28.096Z,102854.19
2022-10-18T16:11:57.461Z,102853.81
2022-10-18T16:14:26.453Z,102845.34
2022-10-18T16:16:56.580Z,102850.16
2022-10-18T16:19:24.401Z,102848.72
2022-10-18T16:21:54.199Z,102858.59
2022-10-18T16:24:22.145Z,102848.13
2022-10-18T16:26:50.491Z,102857.28
2022-10-18T16:29:31.969Z,102853.19
2022-10-18T16:32:00.091Z,102867.72
2022-10-18T16:34:27.721Z,102860.25
2022-10-18T16:36:55.676Z,102861.56
2022-10-18T16:39:23.582Z,102859.16
2022-10-18T16:41:51.703Z,102862.22
2022-10-18T16:44:19.349Z,102866.97
2022-10-18T16:46:50.983Z,102866.28
2022-10-18T16:49:24.659Z,102863.97
2022-10-18T16:51:53.733Z,102865.97
2022-10-18T16:54:21.732Z,102859.94
2022-10-18T16:56:50.286Z,102857.44
2022-10-18T16:59:25.911Z,102852.34
2022-10-18T17:01:53.603Z,102851.75
2022-10-18T17:04:21.235Z,102857.38
2022-10-18T17:06:51.453Z,102854.88
2022-10-18T17:09:19.073Z,102856.88
2022-10-18T17:11:46.569Z,102857.91
2022-10-18T17:14:14.060Z,102854.38
2022-10-18T17:16:44.452Z,102850.84
2022-10-18T17:19:14.949Z,102850.06
2022-10-18T17:21:42.571Z,102853.88
2022-10-18T17:24:10.277Z,102849.81
2022-10-18T17:26:37.753Z,102853.69
2022-10-18T17:29:08.596Z,102851.31
2022-10-18T17:31:36.239Z,102848.78
2022-10-18T17:34:03.989Z,102855.25
2022-10-18T17:36:33.456Z,102860.78
2022-10-18T17:39:01.163Z,102861.03
2022-10-18T17:41:28.796Z,102857.50
2022-10-18T17:43:56.640Z,102869.34
2022-10-18T17:46:24.159Z,102874.81
2022-10-18T17:48:51.645Z,102878.44
2022-10-18T17:51:19.299Z,102878.59
2022-10-18T17:53:46.810Z,102885.75
2022-10-18T17:56:15.309Z,102886.72
2022-10-18T17:58:43.728Z,102886.56
2022-10-18T18:01:17.693Z,102880.97
2022-10-18T18:03:47.691Z,102893.25
2022-10-18T18:06:24.001Z,102885.81
2022-10-18T18:08:52.463Z,102891.97
2022-10-18T18:11:20.287Z,102898.75
2022-10-18T18:13:47.940Z,102896.59
2022-10-18T18:16:15.462Z,102899.09
2022-10-18T18:18:44.151Z,102892.66
2022-10-18T18:21:12.288Z,102889.97
2022-10-18T18:23:39.994Z,102892.47
2022-10-18T18:26:07.817Z,102893.06
2022-10-18T18:28:36.446Z,102894.09
2022-10-18T18:31:14.823Z,102903.88
2022-10-18T18:33:43.130Z,102901.38
2022-10-18T18:36:11.452Z,102895.91
2022-10-18T18:38:42.798Z,102894.03
2022-10-18T18:41:14.148Z,102900.16
2022-10-18T18:43:44.387Z,102905.59
2022-10-18T18:46:15.222Z,102912.66
2022-10-18T18:48:43.005Z,102917.16
2022-10-18T18:51:19.471Z,102924.28
2022-10-18T18:53:48.301Z,102921.50
2022-10-18T18:56:18.750Z,102927.72
2022-10-18T18:58:47.092Z,102939.38
2022-10-18T19:01:20.205Z,102924.84
2022-10-18T19:03:50.947Z,102930.16
2022-10-18T19:06:21.481Z,102942.56
2022-10-18T19:08:50.006Z,102950.69
2022-10-18T19:11:19.965Z,102946.22
2022-10-18T19:13:49.158Z,102947.06
2022-10-18T19:16:24.531Z,102943.59
2022-10-18T19:18:52.864Z,102947.25
2022-10-18T19:21:21.631Z,102946.38
2022-10-18T19:23:50.321Z,102950.09
2022-10-18T19:26:45.462Z,102948.28
2022-10-18T19:29:25.947Z,102954.59
2022-10-18T19:31:57.065Z,102958.28
2022-10-18T19:34:27.543Z,102949.56
2022-10-18T19:36:55.881Z,102956.63
2022-10-18T19:39:34.268Z,102958.53
2022-10-18T19:42:05.120Z,102947.81
2022-10-18T19:44:36.011Z,102953.19
2022-10-18T19:47:05.582Z,102948.03
2022-10-18T19:49:33.096Z,102950.59
2022-10-18T19:52:00.623Z,102942.47
2022-10-18T19:54:28.454Z,102940.00
2022-10-18T19:56:58.400Z,102940.91
2022-10-18T19:59:26.049Z,102940.06
2022-10-18T20:01:53.652Z,102937.47
2022-10-18T20:04:21.200Z,102938.34
2022-10-18T20:06:49.717Z,102936.59
2022-10-18T20:09:20.418Z,102941.09
2022-10-18T20:11:48.537Z,102935.72
2022-10-18T20:14:16.108Z,102933.16
2022-10-18T20:16:43.641Z,102933.16
2022-10-18T20:19:11.753Z,102937.66
2022-10-18T20:21:40.083Z,102934.09
2022-10-18T20:24:09.372Z,102932.28
2022-10-18T20:26:37.152Z,102917.16
2022-10-18T20:29:04.855Z,102921.75
2022-10-18T20:31:37.198Z,102922.69
2022-10-18T20:34:11.762Z,102921.06
2022-10-18T20:36:39.929Z,102920.09
2022-10-18T20:39:08.004Z,102921.81
2022-10-18T20:41:38.921Z,102921.91
2022-10-18T20:44:11.477Z,102916.63
2022-10-18T20:46:39.405Z,102913.91
2022-10-18T20:49:08.280Z,102905.94
2022-10-18T20:51:36.449Z,102912.13
2022-10-18T20:54:06.430Z,102911.22
2022-10-18T20:56:36.524Z,102905.00
2022-10-18T20:59:06.267Z,102902.50
2022-10-18T21:01:34.470Z,102905.16
2022-10-18T21:04:04.634Z,102899.88
2022-10-18T21:06:41.152Z,102891.84
2022-10-18T21:09:12.376Z,102891.09
2022-10-18T21:11:41.938Z,102884.00
2022-10-18T21:14:15.068Z,102887.63
2022-10-18T21:16:46.084Z,102887.63
2022-10-18T21:19:15.276Z,102888.59
2022-10-18T21:21:45.017Z,102889.63
2022-10-18T21:24:13.952Z,102885.41
2022-10-18T21:26:41.503Z,102890.00
2022-10-18T21:29:11.594Z,102884.72
2022-10-18T21:31:41.412Z,102882.16
2022-10-18T21:34:15.832Z,102883.09
2022-10-18T21:36:45.361Z,102888.44
2022-10-18T21:39:16.060Z,102891.06
2022-10-18T21:41:44.521Z,102893.72
2022-10-18T21:44:12.960Z,102892.88
2022-10-18T21:46:43.014Z,102887.75
2022-10-18T21:49:11.406Z,102886.94
2022-10-18T21:51:39.258Z,102886.19
2022-10-18T21:54:11.363Z,102900.34
2022-10-18T21:56:39.154Z,102897.50
2022-10-18T21:59:06.640Z,102900.97
2022-10-18T22:01:38.555Z,102901.06
2022-10-18T22:04:08.143Z,102904.22
2022-10-18T22:06:36.833Z,102891.59
2022-10-18T22:09:08.445Z,102891.31
2022-10-18T22:11:40.263Z,102884.72
2022-10-18T22:14:08.107Z,102885.19
2022-10-18T22:16:36.100Z,102888.28
2022-10-18T22:19:05.629Z,102885.06
2022-10-18T22:21:33.791Z,102872.09
2022-10-18T22:24:06.084Z,102875.88
2022-10-18T22:26:39.250Z,102867.06
2022-10-18T22:29:17.124Z,102874.22
2022-10-18T22:31:47.742Z,102878.53
2022-10-18T22:34:20.948Z,102877.38
2022-10-18T22:36:48.857Z,102872.78
2022-10-18T22:39:17.221Z,102873.53
2022-10-18T22:41:45.396Z,102872.56
2022-10-18T22:44:14.409Z,102863.00
2022-10-18T22:46:42.536Z,102872.03
2022-10-18T22:49:11.680Z,102862.25
2022-10-18T22:51:40.069Z,102872.19
2022-10-18T22:54:08.269Z,102860.38
2022-10-18T22:56:35.862Z,102863.06
2022-10-18T22:59:03.428Z,102863.06
2022-10-18T23:01:30.948Z,102863.06
2022-10-18T23:03:59.983Z,102864.88
2022-10-18T23:06:30.129Z,102859.59
2022-10-18T23:08:59.344Z,102861.66
2022-10-18T23:11:28.081Z,102862.81
2022-10-18T23:13:55.614Z,102863.44
2022-10-18T23:16:23.661Z,102856.00
2022-10-18T23:18:52.560Z,102858.50
2022-10-18T23:21:20.981Z,102860.91
2022-10-18T23:23:48.452Z,102858.59
2022-10-18T23:26:19.673Z,102858.03
2022-10-18T23:28:48.644Z,102852.25
2022-10-18T23:31:31.010Z,102846.44
2022-10-18T23:34:01.224Z,102849.41
2022-10-18T23:36:29.448Z,102846.16
2022-10-18T23:38:57.172Z,102848.25
2022-10-18T23:41:25.343Z,102842.28
2022-10-18T23:43:53.119Z,102843.34
2022-10-18T23:46:20.862Z,102851.59
2022-10-18T23:48:48.942Z,102843.78
2022-10-18T23:51:17.247Z,102846.69
2022-10-18T23:53:45.072Z,102843.28
2022-10-18T23:56:15.707Z,102843.44
2022-10-18T23:58:44.545Z,102847.09
